createdAt,value
2023-05-18T00:00:19.717Z,93.01
2023-05-18T00:01:22.436Z,92.96
2023-05-18T00:02:26.819Z,93.14
2023-05-18T00:03:30.556Z,92.95
2023-05-18T00:04:36.128Z,93.10
2023-05-18T00:05:38.405Z,92.93
2023-05-18T00:06:40.414Z,93.21
2023-05-18T00:07:44.718Z,93.15
2023-05-18T00:08:47.302Z,93.19
2023-05-18T00:09:49.233Z,93.64
2023-05-18T00:10:51.191Z,93.40
2023-05-18T00:11:53.653Z,93.54
2023-05-18T00:12:55.780Z,93.28
2023-05-18T00:13:57.766Z,93.49
2023-05-18T00:14:59.632Z,93.03
2023-05-18T00:16:01.607Z,93.22
2023-05-18T00:17:03.748Z,93.09
2023-05-18T00:18:05.796Z,93.18
2023-05-18T00:19:08.220Z,92.99
2023-05-18T00:20:10.982Z,92.97
2023-05-18T00:21:13.605Z,92.93
2023-05-18T00:22:19.238Z,92.97
2023-05-18T00:23:23.972Z,92.81
2023-05-18T00:24:25.953Z,92.71
2023-05-18T00:25:28.099Z,92.80
2023-05-18T00:26:30.505Z,93.03
2023-05-18T00:27:33.337Z,92.95
2023-05-18T00:28:35.309Z,92.91
2023-05-18T00:29:37.242Z,92.82
2023-05-18T00:30:39.705Z,92.86
2023-05-18T00:31:42.478Z,92.74
2023-05-18T00:32:44.515Z,92.67
2023-05-18T00:33:46.501Z,92.59
2023-05-18T00:34:48.367Z,92.80
2023-05-18T00:35:50.266Z,92.97
2023-05-18T00:36:52.098Z,92.48
2023-05-18T00:37:54.071Z,92.39
2023-05-18T00:38:55.909Z,92.28
2023-05-18T00:39:57.875Z,92.76
2023-05-18T00:40:59.749Z,92.85
2023-05-18T00:42:01.642Z,92.81
2023-05-18T00:43:03.686Z,92.93
2023-05-18T00:44:05.613Z,92.81
2023-05-18T00:45:07.834Z,93.18
2023-05-18T00:46:09.806Z,93.39
2023-05-18T00:47:11.942Z,93.00
2023-05-18T00:48:14.006Z,93.13
2023-05-18T00:49:16.123Z,93.04
2023-05-18T00:50:18.366Z,92.68
2023-05-18T00:51:20.819Z,92.94
2023-05-18T00:52:23.026Z,93.08
2023-05-18T00:53:25.030Z,93.00
2023-05-18T00:54:27.053Z,92.94
2023-05-18T00:55:29.326Z,92.86
2023-05-18T00:56:34.656Z,92.99
2023-05-18T00:57:37.026Z,92.98
2023-05-18T00:58:40.272Z,92.87
2023-05-18T00:59:43.036Z,92.68
2023-05-18T01:00:44.984Z,92.84
2023-05-18T01:01:47.286Z,92.66
2023-05-18T01:02:52.005Z,92.74
2023-05-18T01:03:56.912Z,92.71
2023-05-18T01:05:00.951Z,92.79
2023-05-18T01:06:06.106Z,92.55
2023-05-18T01:07:08.190Z,92.40
2023-05-18T01:08:10.237Z,92.49
2023-05-18T01:09:13.770Z,92.17
2023-05-18T01:10:17.062Z,92.21
2023-05-18T01:11:34.206Z,91.99
2023-05-18T01:12:36.426Z,92.11
2023-05-18T01:13:47.043Z,91.88
2023-05-18T01:15:04.073Z,91.79
2023-05-18T01:16:08.414Z,91.76
2023-05-18T01:17:22.187Z,92.20
2023-05-18T01:18:29.526Z,92.11
2023-05-18T01:19:40.284Z,92.24
2023-05-18T01:20:43.043Z,92.60
2023-05-18T01:21:57.853Z,92.70
2023-05-18T01:23:21.082Z,92.93
2023-05-18T01:24:26.018Z,92.87
2023-05-18T01:25:32.455Z,92.76
2023-05-18T01:26:37.972Z,92.34
2023-05-18T01:27:42.870Z,92.55
2023-05-18T01:28:46.778Z,92.48
2023-05-18T01:29:49.090Z,92.25
2023-05-18T01:30:51.536Z,92.37
2023-05-18T01:31:53.569Z,92.56
2023-05-18T01:32:55.467Z,92.44
2023-05-18T01:33:57.354Z,92.56
2023-05-18T01:34:59.284Z,92.54
2023-05-18T01:36:01.493Z,92.22
2023-05-18T01:37:03.462Z,92.23
2023-05-18T01:38:05.477Z,92.31
2023-05-18T01:39:07.966Z,92.48
2023-05-18T01:40:09.956Z,92.37
2023-05-18T01:41:23.959Z,92.97
2023-05-18T01:42:28.445Z,93.43
2023-05-18T01:43:37.588Z,93.49
2023-05-18T01:44:52.219Z,93.15
2023-05-18T01:45:56.753Z,92.89
2023-05-18T01:47:01.953Z,93.16
2023-05-18T01:48:04.755Z,93.15
2023-05-18T01:49:13.872Z,93.46
2023-05-18T01:50:19.110Z,93.38
2023-05-18T01:51:21.794Z,93.66
2023-05-18T01:52:27.289Z,93.41
2023-05-18T01:53:35.824Z,93.43
2023-05-18T01:54:39.172Z,93.56
2023-05-18T01:55:42.047Z,93.21
2023-05-18T01:56:45.356Z,93.22
2023-05-18T01:57:48.727Z,93.22
2023-05-18T01:58:50.762Z,92.87
2023-05-18T01:59:54.987Z,92.77
2023-05-18T02:00:56.974Z,92.70
2023-05-18T02:02:02.362Z,92.74
2023-05-18T02:03:04.436Z,92.98
2023-05-18T02:04:10.632Z,92.88
2023-05-18T02:05:13.068Z,92.99
2023-05-18T02:06:14.952Z,93.03
2023-05-18T02:07:16.970Z,93.04
2023-05-18T02:08:18.990Z,93.08
2023-05-18T02:09:22.053Z,92.79
2023-05-18T02:10:23.997Z,92.89
2023-05-18T02:11:26.554Z,92.81
2023-05-18T02:12:28.528Z,92.89
2023-05-18T02:13:30.597Z,92.61
2023-05-18T02:14:32.823Z,92.57
2023-05-18T02:15:34.710Z,92.54
2023-05-18T02:16:36.692Z,92.63
2023-05-18T02:17:39.346Z,92.62
2023-05-18T02:18:41.411Z,92.44
2023-05-18T02:19:43.431Z,92.52
2023-05-18T02:20:49.376Z,92.26
2023-05-18T02:21:51.533Z,92.13
2023-05-18T02:22:53.547Z,92.19
2023-05-18T02:23:55.502Z,92.46
2023-05-18T02:24:57.508Z,92.39
2023-05-18T02:25:59.579Z,92.34
2023-05-18T02:27:01.770Z,92.31
2023-05-18T02:28:03.660Z,92.75
2023-05-18T02:29:12.139Z,92.93
2023-05-18T02:30:16.065Z,92.88
2023-05-18T02:31:18.367Z,93.11
2023-05-18T02:32:20.589Z,92.70
2023-05-18T02:33:26.729Z,93.07
2023-05-18T02:34:32.729Z,93.02
2023-05-18T02:35:34.696Z,92.93
2023-05-18T02:36:42.962Z,92.84
2023-05-18T02:37:44.838Z,93.08
2023-05-18T02:38:46.825Z,92.73
2023-05-18T02:39:48.917Z,93.00
2023-05-18T02:40:51.014Z,92.89
2023-05-18T02:41:52.982Z,92.77
2023-05-18T02:42:54.870Z,92.69
2023-05-18T02:43:56.882Z,92.86
2023-05-18T02:44:59.017Z,92.58
2023-05-18T02:46:00.954Z,92.78
2023-05-18T02:47:02.824Z,92.65
2023-05-18T02:48:04.792Z,93.15
2023-05-18T02:49:07.289Z,93.31
2023-05-18T02:50:09.371Z,93.47
2023-05-18T02:51:11.318Z,93.23
2023-05-18T02:52:13.206Z,93.65
2023-05-18T02:53:15.160Z,93.88
2023-05-18T02:54:17.039Z,93.63
2023-05-18T02:55:19.610Z,94.23
2023-05-18T02:56:21.603Z,94.01
2023-05-18T02:57:23.481Z,94.09
2023-05-18T02:58:25.950Z,93.77
2023-05-18T02:59:27.789Z,93.54
2023-05-18T03:00:30.977Z,93.98
2023-05-18T03:01:35.058Z,93.52
2023-05-18T03:02:39.135Z,93.23
2023-05-18T03:03:42.724Z,93.24
2023-05-18T03:04:44.646Z,92.98
2023-05-18T03:05:46.565Z,92.88
2023-05-18T03:06:53.280Z,93.10
2023-05-18T03:07:55.170Z,92.88
2023-05-18T03:08:57.461Z,93.02
2023-05-18T03:09:59.370Z,92.95
2023-05-18T03:11:01.446Z,93.12
2023-05-18T03:12:03.339Z,92.76
2023-05-18T03:13:05.733Z,92.63
2023-05-18T03:14:07.637Z,93.09
2023-05-18T03:15:09.922Z,92.63
2023-05-18T03:16:11.882Z,92.93
2023-05-18T03:17:14.077Z,92.56
2023-05-18T03:18:16.188Z,92.64
2023-05-18T03:19:18.216Z,92.72
2023-05-18T03:20:20.235Z,92.58
2023-05-18T03:21:22.287Z,92.88
2023-05-18T03:22:24.148Z,93.09
2023-05-18T03:23:27.462Z,93.47
2023-05-18T03:24:30.593Z,93.08
2023-05-18T03:25:33.198Z,93.15
2023-05-18T03:26:35.324Z,93.54
2023-05-18T03:27:38.311Z,93.18
2023-05-18T03:28:40.214Z,93.43
2023-05-18T03:29:42.189Z,93.32
2023-05-18T03:30:44.085Z,93.24
2023-05-18T03:31:46.056Z,93.19
2023-05-18T03:32:48.682Z,93.47
2023-05-18T03:33:50.620Z,93.51
2023-05-18T03:34:53.292Z,93.63
2023-05-18T03:35:55.211Z,93.58
2023-05-18T03:36:58.511Z,93.76
2023-05-18T03:38:00.433Z,93.86
2023-05-18T03:39:02.533Z,93.82
2023-05-18T03:40:14.970Z,93.71
2023-05-18T03:41:16.864Z,93.37
2023-05-18T03:42:18.896Z,93.78
2023-05-18T03:43:20.876Z,93.66
2023-05-18T03:44:22.812Z,93.25
2023-05-18T03:45:24.711Z,93.40
2023-05-18T03:46:26.914Z,93.51
2023-05-18T03:47:30.252Z,93.20
2023-05-18T03:48:32.151Z,93.29
2023-05-18T03:49:34.791Z,93.22
2023-05-18T03:50:37.255Z,93.31
2023-05-18T03:51:39.310Z,93.46
2023-05-18T03:52:42.072Z,93.65
2023-05-18T03:53:44.254Z,93.67
2023-05-18T03:54:46.157Z,93.57
2023-05-18T03:55:49.861Z,93.20
2023-05-18T03:56:51.796Z,93.62
2023-05-18T03:57:54.379Z,93.57
2023-05-18T03:58:56.249Z,93.22
2023-05-18T03:59:58.445Z,93.31
2023-05-18T04:01:01.242Z,93.56
2023-05-18T04:02:03.378Z,93.13
2023-05-18T04:03:05.415Z,93.64
2023-05-18T04:04:07.682Z,93.84
2023-05-18T04:05:10.394Z,93.70
2023-05-18T04:06:12.249Z,93.77
2023-05-18T04:07:16.890Z,93.88
2023-05-18T04:08:18.955Z,93.72
2023-05-18T04:09:22.101Z,93.82
2023-05-18T04:10:24.035Z,93.71
2023-05-18T04:11:26.342Z,93.71
2023-05-18T04:12:28.238Z,93.80
2023-05-18T04:13:30.168Z,93.78
2023-05-18T04:14:35.635Z,93.91
2023-05-18T04:15:37.551Z,93.88
2023-05-18T04:16:39.470Z,93.33
2023-05-18T04:17:46.286Z,93.24
2023-05-18T04:18:48.761Z,93.34
2023-05-18T04:19:50.926Z,93.27
2023-05-18T04:20:53.029Z,93.52
2023-05-18T04:21:54.960Z,93.71
2023-05-18T04:22:58.034Z,93.54
2023-05-18T04:24:00.767Z,93.74
2023-05-18T04:25:03.532Z,93.84
2023-05-18T04:26:06.568Z,93.54
2023-05-18T04:27:10.779Z,93.87
2023-05-18T04:28:12.608Z,93.59
2023-05-18T04:29:14.560Z,93.33
2023-05-18T04:30:19.172Z,93.68
2023-05-18T04:31:22.345Z,93.42
2023-05-18T04:32:28.640Z,93.35
2023-05-18T04:33:30.760Z,93.28
2023-05-18T04:34:34.153Z,93.48
2023-05-18T04:35:36.255Z,93.70
2023-05-18T04:36:41.246Z,93.53
2023-05-18T04:37:43.400Z,93.61
2023-05-18T04:38:45.301Z,93.64
2023-05-18T04:39:47.899Z,93.97
2023-05-18T04:40:50.698Z,93.69
2023-05-18T04:42:01.501Z,93.58
2023-05-18T04:43:04.375Z,93.50
2023-05-18T04:44:06.386Z,93.28
2023-05-18T04:45:08.524Z,93.17
2023-05-18T04:46:10.553Z,93.11
2023-05-18T04:47:12.422Z,92.87
2023-05-18T04:48:14.817Z,92.97
2023-05-18T04:49:16.701Z,93.02
2023-05-18T04:50:18.812Z,92.93
2023-05-18T04:51:21.951Z,92.76
2023-05-18T04:52:23.896Z,92.58
2023-05-18T04:53:27.772Z,92.58
2023-05-18T04:54:33.165Z,92.71
2023-05-18T04:55:35.656Z,92.75
2023-05-18T04:56:37.701Z,92.27
2023-05-18T04:57:39.697Z,92.75
2023-05-18T04:58:42.009Z,92.95
2023-05-18T04:59:47.632Z,93.39
2023-05-18T05:00:49.526Z,93.85
2023-05-18T05:01:51.695Z,94.30
2023-05-18T05:02:53.929Z,93.97
2023-05-18T05:03:58.942Z,94.18
2023-05-18T05:05:01.840Z,94.57
2023-05-18T05:06:03.939Z,94.93
2023-05-18T05:07:05.902Z,94.66
2023-05-18T05:08:07.812Z,94.81
2023-05-18T05:09:09.719Z,94.93
2023-05-18T05:10:11.687Z,94.91
2023-05-18T05:11:13.697Z,94.84
2023-05-18T05:12:16.058Z,94.96
2023-05-18T05:13:17.996Z,94.63
2023-05-18T05:14:19.884Z,94.46
2023-05-18T05:15:21.818Z,94.84
2023-05-18T05:16:23.822Z,94.48
2023-05-18T05:17:25.940Z,94.66
2023-05-18T05:18:27.836Z,95.14
2023-05-18T05:19:29.766Z,94.95
2023-05-18T05:20:34.902Z,94.78
2023-05-18T05:21:36.926Z,94.67
2023-05-18T05:22:39.049Z,94.59
2023-05-18T05:23:41.601Z,94.61
2023-05-18T05:24:43.477Z,94.91
2023-05-18T05:25:45.441Z,94.86
2023-05-18T05:26:47.436Z,94.46
2023-05-18T05:27:49.314Z,94.37
2023-05-18T05:28:51.294Z,94.55
2023-05-18T05:29:53.272Z,94.14
2023-05-18T05:30:55.207Z,93.95
2023-05-18T05:31:57.388Z,94.10
2023-05-18T05:32:59.501Z,94.05
2023-05-18T05:34:01.376Z,93.80
2023-05-18T05:35:03.692Z,94.08
2023-05-18T05:36:05.744Z,93.87
2023-05-18T05:37:07.712Z,94.01
2023-05-18T05:38:09.855Z,94.15
2023-05-18T05:39:12.121Z,93.92
2023-05-18T05:40:14.101Z,93.88
2023-05-18T05:41:16.199Z,94.14
2023-05-18T05:42:18.203Z,94.19
2023-05-18T05:43:20.129Z,93.78
2023-05-18T05:44:22.557Z,93.92
2023-05-18T05:45:24.484Z,93.99
2023-05-18T05:46:26.600Z,94.29
2023-05-18T05:47:28.659Z,94.17
2023-05-18T05:48:30.722Z,94.34
2023-05-18T05:49:32.611Z,94.25
2023-05-18T05:50:34.601Z,94.26
2023-05-18T05:51:36.546Z,94.34
2023-05-18T05:52:38.462Z,94.51
2023-05-18T05:53:41.382Z,94.63
2023-05-18T05:54:43.488Z,94.41
2023-05-18T05:55:45.753Z,94.69
2023-05-18T05:56:47.730Z,94.47
2023-05-18T05:57:49.788Z,94.47
2023-05-18T05:58:52.216Z,94.20
2023-05-18T05:59:54.122Z,94.36
2023-05-18T06:00:56.069Z,94.79
2023-05-18T06:01:58.173Z,94.99
2023-05-18T06:03:00.679Z,94.88
2023-05-18T06:04:04.755Z,94.85
2023-05-18T06:05:07.637Z,94.96
2023-05-18T06:06:09.636Z,95.14
2023-05-18T06:07:11.718Z,94.83
2023-05-18T06:08:13.715Z,95.31
2023-05-18T06:09:16.353Z,95.28
2023-05-18T06:10:18.303Z,95.34
2023-05-18T06:11:20.265Z,95.10
2023-05-18T06:12:22.183Z,95.35
2023-05-18T06:13:24.060Z,95.41
2023-05-18T06:14:26.377Z,95.26
2023-05-18T06:15:28.468Z,94.94
2023-05-18T06:16:30.590Z,95.19
2023-05-18T06:17:32.552Z,95.11
2023-05-18T06:18:35.347Z,95.08
2023-05-18T06:19:37.361Z,94.94
2023-05-18T06:20:39.586Z,94.95
2023-05-18T06:21:41.549Z,94.84
2023-05-18T06:22:44.224Z,94.70
2023-05-18T06:23:46.285Z,94.68
2023-05-18T06:24:48.335Z,94.80
2023-05-18T06:25:50.477Z,94.80
2023-05-18T06:26:52.409Z,94.91
2023-05-18T06:27:54.343Z,94.73
2023-05-18T06:28:56.283Z,94.67
2023-05-18T06:29:58.419Z,95.01
2023-05-18T06:31:00.462Z,94.88
2023-05-18T06:32:02.558Z,94.40
2023-05-18T06:33:04.883Z,94.62
2023-05-18T06:34:06.913Z,94.49
2023-05-18T06:35:09.063Z,94.61
2023-05-18T06:36:10.936Z,94.72
2023-05-18T06:37:12.985Z,94.69
2023-05-18T06:38:15.035Z,94.60
2023-05-18T06:39:17.058Z,94.77
2023-05-18T06:40:19.001Z,94.37
2023-05-18T06:41:21.011Z,94.90
2023-05-18T06:42:23.084Z,95.10
2023-05-18T06:43:28.772Z,95.27
2023-05-18T06:44:30.847Z,95.21
2023-05-18T06:45:35.367Z,95.56
2023-05-18T06:46:39.013Z,95.39
2023-05-18T06:47:41.191Z,95.38
2023-05-18T06:48:45.281Z,95.34
2023-05-18T06:49:47.181Z,95.38
2023-05-18T06:50:49.185Z,95.49
2023-05-18T06:51:51.332Z,95.36
2023-05-18T06:52:53.666Z,95.21
2023-05-18T06:53:55.622Z,95.24
2023-05-18T06:54:57.864Z,95.06
2023-05-18T06:55:59.875Z,95.09
2023-05-18T06:57:01.917Z,94.83
2023-05-18T06:58:03.769Z,94.72
2023-05-18T06:59:05.789Z,94.72
2023-05-18T07:00:12.707Z,94.63
2023-05-18T07:01:14.675Z,94.49
2023-05-18T07:02:16.648Z,94.20
2023-05-18T07:03:18.916Z,93.98
2023-05-18T07:04:20.947Z,93.10
2023-05-18T07:05:23.624Z,93.04
2023-05-18T07:06:25.931Z,92.94
2023-05-18T07:07:27.944Z,92.57
2023-05-18T07:08:29.951Z,92.81
2023-05-18T07:09:32.036Z,92.74
2023-05-18T07:10:35.719Z,92.52
2023-05-18T07:11:37.786Z,92.26
2023-05-18T07:12:39.764Z,92.35
2023-05-18T07:13:41.742Z,92.25
2023-05-18T07:14:45.326Z,92.03
2023-05-18T07:15:47.461Z,92.12
2023-05-18T07:16:49.422Z,92.02
2023-05-18T07:17:51.310Z,91.85
2023-05-18T07:18:53.367Z,91.97
2023-05-18T07:19:55.277Z,91.75
2023-05-18T07:20:57.212Z,91.34
2023-05-18T07:21:59.887Z,91.47
2023-05-18T07:23:01.810Z,91.36
2023-05-18T07:24:03.857Z,91.52
2023-05-18T07:25:06.028Z,91.62
2023-05-18T07:26:10.354Z,91.71
2023-05-18T07:27:12.377Z,91.71
2023-05-18T07:28:14.365Z,91.55
2023-05-18T07:29:16.302Z,91.84
2023-05-18T07:30:18.469Z,91.90
2023-05-18T07:31:21.996Z,92.15
2023-05-18T07:32:24.072Z,92.34
2023-05-18T07:33:26.028Z,92.44
2023-05-18T07:34:27.965Z,92.64
2023-05-18T07:35:30.094Z,92.29
2023-05-18T07:36:32.070Z,92.38
2023-05-18T07:37:34.029Z,92.08
2023-05-18T07:38:35.969Z,92.33
2023-05-18T07:39:39.198Z,91.64
2023-05-18T07:40:41.706Z,91.38
2023-05-18T07:41:43.533Z,91.54
2023-05-18T07:42:45.607Z,91.37
2023-05-18T07:43:47.686Z,91.38
2023-05-18T07:44:49.575Z,91.24
2023-05-18T07:45:51.512Z,90.80
2023-05-18T07:46:53.545Z,90.67
2023-05-18T07:47:55.726Z,90.66
2023-05-18T07:48:57.816Z,90.80
2023-05-18T07:49:59.706Z,90.85
2023-05-18T07:51:01.638Z,90.62
2023-05-18T07:52:03.953Z,90.69
2023-05-18T07:53:05.914Z,90.79
2023-05-18T07:54:07.823Z,90.62
2023-05-18T07:55:09.756Z,90.13
2023-05-18T07:56:11.821Z,90.41
2023-05-18T07:57:13.766Z,89.99
2023-05-18T07:58:16.333Z,90.22
2023-05-18T07:59:18.242Z,90.46
2023-05-18T08:00:20.696Z,90.36
2023-05-18T08:01:27.772Z,90.33
2023-05-18T08:02:31.321Z,90.34
2023-05-18T08:03:34.876Z,90.29
2023-05-18T08:04:37.037Z,90.15
2023-05-18T08:05:39.160Z,90.15
2023-05-18T08:06:41.036Z,89.95
2023-05-18T08:07:43.063Z,90.26
2023-05-18T08:08:45.011Z,90.67
2023-05-18T08:09:46.977Z,90.29
2023-05-18T08:10:48.917Z,90.85
2023-05-18T08:11:51.891Z,90.75
2023-05-18T08:12:53.851Z,90.76
2023-05-18T08:13:55.738Z,90.94
2023-05-18T08:14:57.656Z,91.23
2023-05-18T08:16:11.176Z,91.52
2023-05-18T08:17:14.038Z,91.46
2023-05-18T08:18:16.202Z,91.56
2023-05-18T08:19:18.177Z,91.52
2023-05-18T08:20:20.192Z,91.43
2023-05-18T08:21:22.060Z,91.24
2023-05-18T08:22:23.988Z,91.43
2023-05-18T08:23:25.953Z,91.20
2023-05-18T08:24:27.961Z,91.52
2023-05-18T08:25:30.226Z,92.16
2023-05-18T08:26:32.306Z,92.23
2023-05-18T08:27:34.228Z,91.49
2023-05-18T08:28:36.031Z,91.49
2023-05-18T08:29:38.048Z,91.43
2023-05-18T08:30:39.981Z,91.35
2023-05-18T08:31:42.006Z,91.15
2023-05-18T08:32:43.929Z,91.53
2023-05-18T08:33:45.821Z,91.47
2023-05-18T08:34:48.422Z,91.70
2023-05-18T08:35:50.443Z,91.45
2023-05-18T08:36:52.827Z,91.55
2023-05-18T08:37:55.273Z,91.80
2023-05-18T08:38:57.252Z,91.91
2023-05-18T08:40:00.050Z,92.00
2023-05-18T08:41:02.093Z,92.06
2023-05-18T08:42:22.767Z,91.99
2023-05-18T08:43:30.029Z,92.09
2023-05-18T08:44:40.581Z,92.02
2023-05-18T08:45:50.683Z,91.99
2023-05-18T08:46:53.344Z,92.10
2023-05-18T08:47:57.774Z,91.81
2023-05-18T08:49:01.183Z,91.68
2023-05-18T08:50:04.082Z,90.98
2023-05-18T08:51:07.081Z,91.27
2023-05-18T08:52:09.581Z,90.93
2023-05-18T08:53:13.955Z,91.22
2023-05-18T08:54:19.989Z,91.28
2023-05-18T08:55:23.471Z,91.25
2023-05-18T08:56:26.795Z,90.95
2023-05-18T08:57:30.972Z,90.98
2023-05-18T08:58:35.861Z,90.44
2023-05-18T08:59:41.885Z,90.33
2023-05-18T09:00:43.872Z,90.14
2023-05-18T09:01:47.293Z,90.20
2023-05-18T09:02:49.545Z,89.99
2023-05-18T09:03:51.413Z,89.99
2023-05-18T09:04:54.957Z,90.18
2023-05-18T09:05:58.895Z,90.03
2023-05-18T09:07:03.355Z,90.20
2023-05-18T09:08:06.593Z,89.45
2023-05-18T09:09:09.936Z,89.70
2023-05-18T09:10:13.903Z,90.56
2023-05-18T09:11:16.787Z,91.12
2023-05-18T09:12:19.547Z,91.55
2023-05-18T09:13:21.957Z,91.78
2023-05-18T09:14:26.201Z,91.52
2023-05-18T09:15:29.157Z,91.50
2023-05-18T09:16:31.625Z,91.12
2023-05-18T09:17:33.615Z,91.37
2023-05-18T09:18:35.814Z,91.22
2023-05-18T09:19:37.853Z,91.21
2023-05-18T09:20:39.847Z,91.57
2023-05-18T09:21:41.765Z,91.47
2023-05-18T09:22:44.015Z,91.57
2023-05-18T09:23:46.138Z,91.39
2023-05-18T09:24:49.245Z,90.70
2023-05-18T09:25:52.965Z,90.59
2023-05-18T09:26:57.156Z,89.76
2023-05-18T09:27:59.153Z,90.14
2023-05-18T09:29:01.676Z,90.47
2023-05-18T09:30:05.198Z,90.84
2023-05-18T09:31:09.316Z,90.77
2023-05-18T09:32:11.406Z,90.84
2023-05-18T09:33:22.102Z,90.20
2023-05-18T09:34:24.887Z,89.83
2023-05-18T09:35:27.015Z,89.90
2023-05-18T09:36:29.886Z,90.26
2023-05-18T09:37:32.062Z,89.85
2023-05-18T09:38:44.238Z,89.01
2023-05-18T09:39:46.800Z,88.64
2023-05-18T09:40:49.585Z,88.00
2023-05-18T09:42:03.004Z,88.20
2023-05-18T09:43:07.672Z,88.77
2023-05-18T09:44:10.029Z,88.78
2023-05-18T09:45:19.592Z,89.08
2023-05-18T09:46:22.391Z,89.09
2023-05-18T09:47:24.433Z,88.89
2023-05-18T09:48:26.736Z,89.02
2023-05-18T09:49:31.858Z,88.53
2023-05-18T09:50:33.839Z,88.52
2023-05-18T09:51:39.396Z,88.10
2023-05-18T09:52:44.277Z,88.77
2023-05-18T09:53:58.798Z,88.70
2023-05-18T09:55:04.902Z,88.85
2023-05-18T09:56:09.734Z,89.26
2023-05-18T09:57:11.774Z,88.87
2023-05-18T09:58:13.764Z,88.22
2023-05-18T09:59:16.339Z,87.85
2023-05-18T10:00:20.085Z,87.31
2023-05-18T10:01:22.687Z,86.39
2023-05-18T10:02:26.312Z,86.86
2023-05-18T10:03:32.429Z,86.65
2023-05-18T10:04:44.330Z,86.87
2023-05-18T10:05:46.481Z,86.68
2023-05-18T10:06:51.658Z,86.40
2023-05-18T10:07:57.788Z,86.40
2023-05-18T10:09:02.157Z,85.58
2023-05-18T10:10:05.409Z,85.72
2023-05-18T10:11:08.566Z,86.04
2023-05-18T10:12:14.009Z,85.96
2023-05-18T10:13:19.806Z,85.65
2023-05-18T10:14:30.539Z,86.05
2023-05-18T10:15:33.767Z,86.42
2023-05-18T10:16:35.849Z,86.37
2023-05-18T10:17:43.419Z,86.25
2023-05-18T10:18:46.473Z,85.86
2023-05-18T10:19:53.360Z,86.21
2023-05-18T10:20:59.172Z,85.42
2023-05-18T10:22:06.451Z,85.50
2023-05-18T10:23:10.091Z,87.09
2023-05-18T10:24:12.850Z,87.93
2023-05-18T10:25:18.986Z,87.74
2023-05-18T10:26:23.280Z,88.18
2023-05-18T10:27:28.470Z,88.54
2023-05-18T10:28:42.194Z,88.90
2023-05-18T10:29:44.868Z,88.50
2023-05-18T10:30:47.924Z,88.63
2023-05-18T10:31:51.031Z,88.41
2023-05-18T10:32:54.397Z,88.31
2023-05-18T10:33:56.369Z,88.27
2023-05-18T10:35:00.110Z,88.47
2023-05-18T10:36:03.111Z,88.87
2023-05-18T10:37:05.743Z,88.73
2023-05-18T10:38:08.523Z,89.23
2023-05-18T10:39:10.682Z,88.67
2023-05-18T10:40:13.901Z,88.21
2023-05-18T10:41:17.936Z,87.72
2023-05-18T10:42:20.900Z,87.03
2023-05-18T10:43:30.243Z,86.89
2023-05-18T10:44:32.491Z,86.54
2023-05-18T10:45:35.721Z,86.64
2023-05-18T10:46:38.623Z,87.09
2023-05-18T10:47:42.896Z,86.16
2023-05-18T10:48:48.713Z,85.61
2023-05-18T10:49:50.708Z,85.65
2023-05-18T10:50:53.557Z,84.88
2023-05-18T10:51:56.239Z,84.90
2023-05-18T10:52:59.611Z,84.89
2023-05-18T10:54:11.277Z,84.42
2023-05-18T10:55:13.468Z,84.02
2023-05-18T10:56:18.424Z,83.84
2023-05-18T10:57:21.043Z,83.84
2023-05-18T10:58:25.563Z,83.79
2023-05-18T10:59:27.965Z,84.33
2023-05-18T11:00:32.140Z,84.81
2023-05-18T11:01:34.758Z,84.64
2023-05-18T11:02:40.441Z,85.28
2023-05-18T11:03:42.540Z,83.86
2023-05-18T11:04:46.188Z,82.93
2023-05-18T11:05:52.480Z,82.84
2023-05-18T11:06:55.288Z,83.44
2023-05-18T11:08:03.627Z,83.82
2023-05-18T11:09:06.397Z,83.29
2023-05-18T11:10:09.549Z,83.63
2023-05-18T11:11:11.496Z,83.84
2023-05-18T11:12:14.389Z,83.71
2023-05-18T11:13:16.398Z,83.89
2023-05-18T11:14:25.175Z,84.35
2023-05-18T11:15:46.975Z,84.32
2023-05-18T11:16:49.140Z,84.71
2023-05-18T11:18:12.188Z,85.11
2023-05-18T11:19:14.589Z,84.94
2023-05-18T11:20:17.406Z,83.98
2023-05-18T11:21:20.011Z,84.01
2023-05-18T11:22:21.930Z,83.57
2023-05-18T11:23:24.232Z,82.87
2023-05-18T11:24:36.953Z,83.47
2023-05-18T11:25:39.583Z,83.57
2023-05-18T11:26:41.588Z,84.00
2023-05-18T11:27:43.582Z,84.16
2023-05-18T11:28:49.491Z,83.93
2023-05-18T11:29:57.745Z,83.71
2023-05-18T11:31:18.130Z,83.38
2023-05-18T11:32:30.591Z,82.58
2023-05-18T11:33:33.132Z,82.94
2023-05-18T11:34:39.432Z,83.44
2023-05-18T11:35:57.054Z,84.11
2023-05-18T11:36:58.918Z,84.70
2023-05-18T11:38:08.691Z,83.54
2023-05-18T11:39:11.667Z,83.21
2023-05-18T11:40:33.552Z,83.12
2023-05-18T11:41:35.742Z,83.13
2023-05-18T11:42:37.880Z,82.68
2023-05-18T11:43:39.783Z,82.97
2023-05-18T11:44:41.795Z,83.62
2023-05-18T11:45:54.045Z,82.94
2023-05-18T11:46:59.271Z,83.03
2023-05-18T11:48:02.429Z,83.39
2023-05-18T11:49:05.085Z,84.22
2023-05-18T11:50:08.744Z,84.25
2023-05-18T11:51:12.128Z,83.28
2023-05-18T11:52:16.548Z,82.37
2023-05-18T11:53:18.993Z,82.13
2023-05-18T11:54:23.296Z,82.95
2023-05-18T11:55:37.390Z,83.08
2023-05-18T11:56:41.632Z,82.98
2023-05-18T11:57:46.086Z,82.50
2023-05-18T11:59:07.854Z,81.89
2023-05-18T12:00:15.546Z,82.25
2023-05-18T12:01:17.922Z,80.93
2023-05-18T12:02:22.183Z,79.12
2023-05-18T12:03:26.112Z,80.14
2023-05-18T12:04:29.151Z,81.05
2023-05-18T12:05:31.054Z,81.68
2023-05-18T12:06:33.591Z,82.57
2023-05-18T12:07:36.771Z,83.43
2023-05-18T12:08:44.240Z,83.06
2023-05-18T12:09:47.403Z,83.96
2023-05-18T12:10:49.894Z,83.78
2023-05-18T12:11:52.252Z,84.34
2023-05-18T12:12:54.299Z,84.34
2023-05-18T12:13:56.780Z,84.25
2023-05-18T12:14:59.426Z,84.51
2023-05-18T12:16:02.071Z,84.69
2023-05-18T12:17:04.472Z,84.83
2023-05-18T12:18:06.751Z,84.62
2023-05-18T12:19:08.865Z,84.67
2023-05-18T12:20:12.284Z,85.33
2023-05-18T12:21:14.482Z,85.09
2023-05-18T12:22:16.610Z,85.08
2023-05-18T12:23:18.724Z,84.59
2023-05-18T12:24:21.350Z,85.22
2023-05-18T12:25:24.420Z,85.11
2023-05-18T12:26:26.377Z,85.74
2023-05-18T12:27:28.341Z,85.55
2023-05-18T12:28:30.295Z,85.27
2023-05-18T12:29:32.834Z,85.35
2023-05-18T12:30:36.359Z,85.29
2023-05-18T12:31:40.690Z,85.61
2023-05-18T12:32:47.264Z,85.82
2023-05-18T12:33:49.581Z,85.80
2023-05-18T12:34:52.514Z,85.32
2023-05-18T12:35:55.237Z,84.86
2023-05-18T12:36:57.165Z,85.34
2023-05-18T12:38:03.235Z,85.36
2023-05-18T12:39:05.298Z,85.75
2023-05-18T12:40:07.495Z,85.96
2023-05-18T12:41:09.564Z,85.41
2023-05-18T12:42:12.486Z,85.73
2023-05-18T12:43:14.515Z,85.99
2023-05-18T12:44:17.142Z,85.57
2023-05-18T12:45:19.279Z,85.45
2023-05-18T12:46:22.976Z,84.81
2023-05-18T12:47:25.205Z,85.17
2023-05-18T12:48:27.188Z,85.04
2023-05-18T12:49:29.173Z,84.97
2023-05-18T12:50:31.873Z,85.62
2023-05-18T12:51:35.845Z,85.61
2023-05-18T12:52:37.915Z,85.88
2023-05-18T12:53:43.404Z,85.89
2023-05-18T12:54:56.051Z,85.33
2023-05-18T12:56:01.994Z,85.25
2023-05-18T12:57:07.930Z,85.49
2023-05-18T12:58:20.047Z,85.41
2023-05-18T12:59:22.101Z,85.00
2023-05-18T13:00:24.185Z,84.92
2023-05-18T13:01:26.746Z,85.50
2023-05-18T13:02:31.844Z,84.89
2023-05-18T13:03:34.631Z,84.90
2023-05-18T13:04:36.737Z,84.78
2023-05-18T13:05:39.033Z,84.66
2023-05-18T13:06:42.086Z,84.95
2023-05-18T13:07:45.004Z,84.51
2023-05-18T13:08:46.890Z,85.28
2023-05-18T13:09:49.914Z,85.51
2023-05-18T13:11:01.622Z,84.61
2023-05-18T13:12:08.180Z,83.28
2023-05-18T13:13:10.475Z,83.48
2023-05-18T13:14:12.378Z,84.32
2023-05-18T13:15:21.948Z,84.29
2023-05-18T13:16:23.910Z,84.90
2023-05-18T13:17:25.898Z,84.81
2023-05-18T13:18:28.665Z,85.23
2023-05-18T13:19:31.867Z,83.66
2023-05-18T13:20:37.041Z,83.55
2023-05-18T13:21:39.981Z,83.86
2023-05-18T13:22:42.169Z,84.16
2023-05-18T13:23:44.212Z,83.80
2023-05-18T13:24:46.933Z,84.05
2023-05-18T13:25:49.037Z,83.46
2023-05-18T13:26:51.605Z,84.14
2023-05-18T13:27:55.251Z,84.53
2023-05-18T13:28:58.257Z,84.77
2023-05-18T13:30:00.258Z,84.83
2023-05-18T13:31:02.232Z,85.22
2023-05-18T13:32:04.462Z,85.38
2023-05-18T13:33:08.673Z,85.24
2023-05-18T13:34:10.645Z,85.44
2023-05-18T13:35:13.669Z,85.45
2023-05-18T13:36:16.420Z,85.90